Time;durP1;ratioP1;P1;durP2;ratioP2;P2;SDS_P1;SDS_P2;PMS_P1;PMS_P2;Temp;Humidity;BMP_temperature;BMP_pressure;BME280_temperature;BME280_humidity;BME280_pressure;Samples;Min_cycle;Max_cycle;Signal;HPM_P1;HPM_P2
2022/09/20 00:01:33;;;;;;;6.35;1.50;;;19.40;58.90;;;;;;5048804;28;20318;-53
2022/09/20 00:04:03;;;;;;;6.03;1.63;;;19.40;59.50;;;;;;5048717;28;20029;-53
2022/09/20 00:06:33;;;;;;;5.53;1.50;;;19.40;59.50;;;;;;5048759;28;20049;-53
2022/09/20 00:09:03;;;;;;;6.65;1.60;;;19.40;60.20;;;;;;5051215;28;20332;-54
2022/09/20 00:11:33;;;;;;;6.20;1.60;;;19.50;60.90;;;;;;5068779;28;20509;-53
2022/09/20 00:14:07;;;;;;;6.53;1.40;;;19.50;61.40;;;;;;5069563;28;20027;-54
2022/09/20 00:16:38;;;;;;;6.50;1.23;;;19.50;61.30;;;;;;5069941;28;20024;-53
2022/09/20 00:19:08;;;;;;;5.28;1.42;;;19.60;61.60;;;;;;5068055;28;20039;-53
2022/09/20 00:21:36;;;;;;;5.18;1.48;;;19.50;61.90;;;;;;5068450;28;20468;-53
2022/09/20 00:24:05;;;;;;;4.32;1.13;;;19.60;62.10;;;;;;5061706;28;20364;-53
2022/09/20 00:26:33;;;;;;;4.88;1.40;;;19.60;62.40;;;;;;5060119;28;20060;-53
2022/09/20 00:29:02;;;;;;;5.85;1.38;;;19.60;62.50;;;;;;5067619;28;20505;-53
2022/09/20 00:31:30;;;;;;;5.35;1.50;;;19.60;62.90;;;;;;5069876;28;20024;-53
2022/09/20 00:36:45;;;;;;;4.45;1.10;;;19.60;64.00;;;;;;5069899;28;20113;-53
2022/09/20 00:39:15;;;;;;;6.00;2.20;;;19.60;63.80;;;;;;5069014;28;20411;-55
2022/09/20 00:41:44;;;;;;;5.70;1.20;;;19.60;63.70;;;;;;5054628;28;20021;-54
2022/09/20 00:44:44;;;;;;;3.80;1.10;;;19.60;63.70;;;;;;5049172;28;20054;-53
2022/09/20 00:47:21;;;;;;;7.25;1.70;;;19.70;63.90;;;;;;5048409;28;20037;-59
2022/09/20 00:49:52;;;;;;;5.45;1.40;;;19.70;64.00;;;;;;5047754;28;20115;-53
2022/09/20 00:52:21;;;;;;;5.03;1.10;;;19.70;64.00;;;;;;5049709;28;20104;-53
2022/09/20 00:54:49;;;;;;;3.88;1.45;;;19.70;64.10;;;;;;5048477;28;20563;-53
2022/09/20 00:57:18;;;;;;;5.93;1.25;;;19.70;64.10;;;;;;5049573;28;20025;-54
2022/09/20 00:59:49;;;;;;;5.38;1.10;;;19.70;64.40;;;;;;5048876;28;20111;-53
2022/09/20 01:02:23;;;;;;;5.22;1.30;;;19.70;64.00;;;;;;5048207;28;20098;-53
2022/09/20 01:04:52;;;;;;;5.32;1.30;;;19.70;64.40;;;;;;5049049;28;20037;-53
2022/09/20 01:07:22;;;;;;;3.53;1.13;;;19.70;64.40;;;;;;5049538;28;20064;-53
2022/09/20 01:09:51;;;;;;;3.85;1.10;;;19.70;64.50;;;;;;5050862;28;20025;-53
2022/09/20 01:12:22;;;;;;;7.07;1.20;;;19.70;64.50;;;;;;5068323;28;20025;-54
2022/09/20 01:14:53;;;;;;;5.95;1.20;;;19.70;64.70;;;;;;5067736;28;20153;-53
2022/09/20 01:17:24;;;;;;;4.70;1.05;;;19.70;64.80;;;;;;5069610;28;20441;-53
2022/09/20 01:20:15;;;;;;;6.75;1.30;;;19.70;64.50;;;;;;5062650;28;20396;-53
2022/09/20 01:23:24;;;;;;;5.97;1.20;;;19.80;64.50;;;;;;5049778;28;20064;-53
2022/09/20 01:25:52;;;;;;;5.10;1.23;;;19.80;64.40;;;;;;5048156;28;20033;-53
2022/09/20 01:28:21;;;;;;;7.50;1.45;;;19.80;64.60;;;;;;5048998;28;20459;-53
2022/09/20 01:31:04;;;;;;;5.07;1.20;;;19.80;64.80;;;;;;5049260;28;20033;-54
2022/09/20 01:34:12;;;;;;;5.18;1.15;;;19.80;64.90;;;;;;5049007;28;20059;-54
2022/09/20 01:36:47;;;;;;;7.13;1.40;;;19.80;64.80;;;;;;5025669;28;20062;-53
2022/09/20 01:40:11;;;;;;;4.63;1.23;;;19.80;65.60;;;;;;5048454;28;20072;-53
2022/09/20 01:42:50;;;;;;;6.55;1.58;;;19.80;65.00;;;;;;5026204;28;20120;-53
2022/09/20 01:45:27;;;;;;;5.95;1.38;;;19.80;65.00;;;;;;5048469;28;20147;-53
2022/09/20 01:48:19;;;;;;;5.03;1.25;;;19.80;65.00;;;;;;5049253;28;20025;-54
2022/09/20 01:51:06;;;;;;;4.78;1.50;;;19.80;65.50;;;;;;5049065;28;20439;-53
2022/09/20 01:53:34;;;;;;;6.90;1.10;;;19.80;64.80;;;;;;5047117;28;20084;-53
2022/09/20 01:56:11;;;;;;;4.65;1.65;;;19.80;64.90;;;;;;5052189;28;20437;-53
2022/09/20 01:58:55;;;;;;;5.90;1.30;;;19.80;65.00;;;;;;5052619;28;20059;-53
2022/09/20 02:01:35;;;;;;;4.78;1.05;;;19.80;64.70;;;;;;5052645;28;20480;-53
2022/09/20 02:04:27;;;;;;;5.82;1.40;;;19.80;64.80;;;;;;5052311;28;20021;-53
2022/09/20 02:06:55;;;;;;;;;;;19.80;64.90;;;;;;5051357;28;20348;-53
2022/09/20 02:09:43;;;;;;;3.65;1.10;;;19.80;65.10;;;;;;5051809;28;19904;-53
2022/09/20 02:12:17;;;;;;;3.35;1.00;;;19.80;65.00;;;;;;5051632;28;20499;-53
2022/09/20 02:15:21;;;;;;;4.63;1.30;;;19.80;65.30;;;;;;5051784;28;20328;-53
2022/09/20 02:18:13;;;;;;;5.85;1.27;;;19.90;65.30;;;;;;5052440;28;20028;-53
2022/09/20 02:21:26;;;;;;;7.30;1.67;;;19.90;65.30;;;;;;5050910;28;20109;-53
2022/09/20 02:24:18;;;;;;;4.10;1.20;;;19.80;65.30;;;;;;4989801;28;20129;-53
2022/09/20 02:26:46;;;;;;;;;;;19.80;65.20;;;;;;4991006;28;20042;-53
2022/09/20 02:29:34;;;;;;;7.30;1.85;;;19.80;65.10;;;;;;5034374;28;19905;-53
2022/09/20 02:32:33;;;;;;;4.25;1.20;;;19.80;65.20;;;;;;5052041;28;20558;-53
2022/09/20 02:35:37;;;;;;;6.30;1.55;;;19.90;65.30;;;;;;5061387;28;20031;-53
2022/09/20 02:38:26;;;;;;;4.05;1.25;;;19.90;65.40;;;;;;4999099;28;20406;-53
2022/09/20 02:41:13;;;;;;;5.13;1.40;;;19.90;65.30;;;;;;5048926;28;20041;-53
2022/09/20 02:44:02;;;;;;;9.57;2.15;;;20.00;65.50;;;;;;5051580;28;20430;-53
2022/09/20 02:46:31;;;;;;;5.85;1.42;;;20.00;65.60;;;;;;5050355;28;20037;-53
2022/09/20 02:49:13;;;;;;;3.20;1.10;;;20.00;65.50;;;;;;5051220;28;20040;-54
2022/09/20 02:52:02;;;;;;;6.53;1.30;;;20.00;65.90;;;;;;5052687;28;20036;-53
2022/09/20 02:55:08;;;;;;;6.15;1.80;;;20.00;66.30;;;;;;5069099;28;20383;-53
2022/09/20 02:57:59;;;;;;;6.45;1.58;;;20.00;66.20;;;;;;5070172;28;20131;-53
2022/09/20 03:01:01;;;;;;;7.05;1.60;;;20.00;66.30;;;;;;5033572;28;20253;-53
2022/09/20 03:04:07;;;;;;;5.90;1.50;;;20.00;66.00;;;;;;5071003;28;20137;-53
2022/09/20 03:07:00;;;;;;;6.90;1.65;;;20.10;66.40;;;;;;5069359;28;20074;-53
2022/09/20 03:10:06;;;;;;;5.57;1.40;;;20.00;66.40;;;;;;5069994;28;20099;-53
2022/09/20 03:12:56;;;;;;;6.15;1.50;;;20.10;66.60;;;;;;5009286;28;20030;-53
2022/09/20 03:16:06;;;;;;;4.53;1.40;;;20.00;66.60;;;;;;4992215;28;20049;-53
2022/09/20 03:19:10;;;;;;;7.25;1.73;;;20.00;66.60;;;;;;5048962;28;20494;-53
2022/09/20 03:21:54;;;;;;;5.05;1.40;;;20.00;66.70;;;;;;5050242;28;20060;-53
2022/09/20 03:24:59;;;;;;;7.30;1.38;;;20.00;67.20;;;;;;5049038;28;20029;-53
2022/09/20 03:27:49;;;;;;;9.75;1.55;;;20.00;66.10;;;;;;5050986;28;20036;-53
2022/09/20 03:30:40;;;;;;;7.10;1.65;;;20.00;65.80;;;;;;5050424;28;20037;-53
2022/09/20 03:33:16;;;;;;;5.82;1.40;;;20.00;65.80;;;;;;5050928;28;20048;-52
2022/09/20 03:36:13;;;;;;;4.60;1.15;;;20.00;65.80;;;;;;5049468;28;20395;-53
2022/09/20 03:39:23;;;;;;;5.40;1.20;;;20.00;65.80;;;;;;5048805;28;20083;-53
2022/09/20 03:42:10;;;;;;;5.28;1.30;;;20.00;65.40;;;;;;5050923;28;20174;-52
2022/09/20 03:45:11;;;;;;;6.40;1.38;;;20.00;65.40;;;;;;5049103;28;20033;-53
2022/09/20 03:48:03;;;;;;;6.95;1.35;;;20.10;65.30;;;;;;5083399;28;20025;-53
2022/09/20 03:51:01;;;;;;;6.32;1.38;;;20.10;65.40;;;;;;5049434;28;20036;-53
2022/09/20 03:53:50;;;;;;;7.95;1.30;;;20.10;65.30;;;;;;5049630;28;20494;-52
2022/09/20 03:56:37;;;;;;;3.20;1.27;;;20.10;65.50;;;;;;5050525;28;20020;-53
2022/09/20 03:59:18;;;;;;;6.18;1.27;;;20.10;65.40;;;;;;5049871;28;20025;-53
2022/09/20 04:01:58;;;;;;;6.53;1.30;;;20.10;64.80;;;;;;5050404;28;20036;-53
2022/09/20 04:04:39;;;;;;;5.63;1.50;;;20.10;64.30;;;;;;5048509;28;20029;-53
2022/09/20 04:07:23;;;;;;;6.22;1.58;;;20.10;64.10;;;;;;5050795;28;20091;-52
2022/09/20 04:10:27;;;;;;;7.38;1.52;;;20.20;64.00;;;;;;5057535;28;20098;-53
2022/09/20 04:12:59;;;;;;;6.00;1.50;;;20.20;63.60;;;;;;5050083;28;20071;-53
2022/09/20 04:15:56;;;;;;;6.30;1.60;;;20.20;63.70;;;;;;5049517;28;20033;-53
2022/09/20 04:18:45;;;;;;;4.05;1.20;;;20.20;63.80;;;;;;5047671;28;20060;-53
2022/09/20 04:21:37;;;;;;;5.53;1.38;;;20.20;64.10;;;;;;5050163;28;20120;-53
2022/09/20 04:24:32;;;;;;;5.75;1.40;;;20.20;64.20;;;;;;5049454;28;20321;-52
2022/09/20 04:27:09;;;;;;;6.30;1.25;;;20.20;64.20;;;;;;5048374;28;20040;-53
2022/09/20 04:30:06;;;;;;;5.82;1.33;;;20.20;64.60;;;;;;5049270;28;20025;-52
2022/09/20 04:32:46;;;;;;;6.93;1.25;;;20.30;64.50;;;;;;5043513;28;20048;-52
2022/09/20 04:38:37;;;;;;;;;;;20.30;64.20;;;;;;5067969;28;20021;-53
2022/09/20 04:41:38;;;;;;;4.60;1.30;;;20.30;64.20;;;;;;5069759;28;19923;-53
2022/09/20 04:44:26;;;;;;;9.20;1.40;;;20.30;64.20;;;;;;5067646;28;20028;-53
2022/09/20 04:47:45;;;;;;;5.78;1.30;;;20.30;64.40;;;;;;5068281;28;20487;-53
2022/09/20 04:50:19;;;;;;;5.32;1.23;;;20.30;64.30;;;;;;5030056;28;20040;-52
2022/09/20 04:53:03;;;;;;;5.30;1.25;;;20.40;64.20;;;;;;5049859;28;20055;-52
2022/09/20 04:55:46;;;;;;;4.68;1.65;;;20.40;64.20;;;;;;5047715;28;20033;-52
2022/09/20 04:58:37;;;;;;;5.25;1.40;;;20.40;64.60;;;;;;5047875;28;20033;-54
2022/09/20 05:01:18;;;;;;;10.25;1.33;;;20.40;64.20;;;;;;5049552;28;20492;-52
2022/09/20 05:04:24;;;;;;;5.47;1.67;;;20.40;64.20;;;;;;5047841;28;20070;-53
2022/09/20 05:07:14;;;;;;;5.20;1.20;;;20.40;64.30;;;;;;5049423;28;20087;-53
2022/09/20 05:09:56;;;;;;;5.90;1.40;;;20.40;64.30;;;;;;5047812;28;20025;-53
2022/09/20 05:12:42;;;;;;;5.03;1.40;;;20.40;64.00;;;;;;5049392;28;20029;-52
2022/09/20 05:15:38;;;;;;;8.80;1.35;;;20.40;63.90;;;;;;5047683;28;20399;-53
2022/09/20 05:18:26;;;;;;;5.07;1.30;;;20.40;63.70;;;;;;5049286;28;20052;-52
2022/09/20 05:21:07;;;;;;;7.28;1.85;;;20.40;63.80;;;;;;5051967;28;20021;-53
2022/09/20 05:23:55;;;;;;;6.05;1.20;;;20.40;64.20;;;;;;5068584;28;20024;-53
2022/09/20 05:26:47;;;;;;;5.32;1.30;;;20.40;65.20;;;;;;5069275;28;20043;-52
2022/09/20 05:29:36;;;;;;;4.55;1.55;;;20.40;64.50;;;;;;5069569;28;20025;-53
2022/09/20 05:32:24;;;;;;;5.53;1.27;;;20.30;64.70;;;;;;5073140;28;20035;-53
2022/09/20 05:35:01;;;;;;;4.93;1.30;;;20.30;64.90;;;;;;5072651;28;20040;-53
2022/09/20 05:37:52;;;;;;;4.78;1.40;;;20.30;65.00;;;;;;5056721;28;20028;-53
2022/09/20 05:40:29;;;;;;;4.95;1.48;;;20.30;65.70;;;;;;5052307;28;20052;-53
2022/09/20 05:43:27;;;;;;;5.90;1.50;;;20.30;65.70;;;;;;5053091;28;20396;-53
2022/09/20 05:46:31;;;;;;;7.10;1.55;;;20.30;65.60;;;;;;5051454;28;20044;-53
2022/09/20 05:49:32;;;;;;;8.30;1.58;;;20.30;66.40;;;;;;5052579;28;20415;-53
2022/09/20 05:52:16;;;;;;;5.85;1.38;;;20.30;67.50;;;;;;5039117;28;20116;-52
2022/09/20 05:55:00;;;;;;;8.18;1.50;;;20.30;67.90;;;;;;5050803;28;20025;-54
2022/09/20 05:58:01;;;;;;;6.85;1.50;;;20.30;68.00;;;;;;5052676;28;20036;-55
2022/09/20 06:00:56;;;;;;;5.32;1.23;;;20.30;67.70;;;;;;5052182;28;20028;-53
2022/09/20 06:03:42;;;;;;;7.07;1.65;;;20.30;67.70;;;;;;5027880;28;20117;-52
2022/09/20 06:06:31;;;;;;;8.98;1.30;;;20.30;67.60;;;;;;5053179;28;20376;-52
2022/09/20 06:09:34;;;;;;;5.07;1.48;;;20.30;67.80;;;;;;5051824;28;20104;-51
2022/09/20 06:12:30;;;;;;;5.78;1.58;;;20.30;67.90;;;;;;5051707;28;20024;-53
2022/09/20 06:15:04;;;;;;;6.38;1.65;;;20.30;67.80;;;;;;5050721;28;20029;-53
2022/09/20 06:18:08;;;;;;;7.10;1.70;;;20.30;67.90;;;;;;5050905;28;20322;-53
2022/09/20 06:20:46;;;;;;;11.52;1.60;;;20.30;67.60;;;;;;5052133;28;20056;-53
2022/09/20 06:23:14;;;;;;;6.72;1.33;;;20.30;67.90;;;;;;5050556;28;20032;-53
2022/09/20 06:25:56;;;;;;;7.50;1.60;;;20.20;67.90;;;;;;5050602;28;20041;-54
2022/09/20 06:28:38;;;;;;;4.80;1.42;;;20.30;68.20;;;;;;5050294;28;20029;-53
2022/09/20 06:31:07;;;;;;;10.37;1.80;;;20.20;68.30;;;;;;5051921;28;20043;-52
2022/09/20 06:33:56;;;;;;;5.53;1.52;;;20.20;68.20;;;;;;5051600;28;20025;-53
2022/09/20 06:42:12;;;;;;;4.78;1.42;;;20.20;68.70;;;;;;5071651;28;20107;-58
2022/09/20 06:44:42;;;;;;;8.45;1.70;;;20.20;69.00;;;;;;5069477;28;20062;-53
2022/09/20 06:47:12;;;;;;;7.60;1.50;;;20.10;68.90;;;;;;5071661;28;20494;-52
2022/09/20 06:49:41;;;;;;;7.55;1.73;;;20.10;69.00;;;;;;5070475;28;20028;-52
2022/09/20 06:52:14;;;;;;;8.75;2.10;;;20.10;69.00;;;;;;5070826;28;20025;-53
2022/09/20 06:54:49;;;;;;;7.65;1.73;;;20.10;69.00;;;;;;5055768;28;20430;-54
2022/09/20 06:57:30;;;;;;;10.50;1.63;;;20.10;69.10;;;;;;5083614;28;20054;-53
2022/09/20 06:59:58;;;;;;;9.93;2.03;;;20.10;69.20;;;;;;5049384;28;20109;-53
2022/09/20 07:02:26;;;;;;;8.27;1.67;;;20.10;68.90;;;;;;5057945;28;20017;-53
2022/09/20 07:04:56;;;;;;;8.43;2.05;;;20.10;69.10;;;;;;5059542;28;20344;-54
2022/09/20 07:07:24;;;;;;;8.57;1.80;;;20.10;69.20;;;;;;5071248;28;20036;-53
2022/09/20 07:09:52;;;;;;;8.60;1.88;;;20.10;69.00;;;;;;5052471;28;20018;-52
2022/09/20 07:12:20;;;;;;;5.55;1.40;;;20.20;69.00;;;;;;5049891;28;20132;-53
2022/09/20 07:14:49;;;;;;;7.07;1.63;;;20.20;68.70;;;;;;5050584;28;20024;-52
2022/09/20 07:17:17;;;;;;;11.43;1.73;;;20.10;68.70;;;;;;5032898;28;20027;-53
2022/09/20 07:19:45;;;;;;;7.35;1.60;;;20.10;68.60;;;;;;5050842;28;20108;-53
2022/09/20 07:22:13;;;;;;;7.40;1.50;;;20.10;68.80;;;;;;5051014;28;20093;-57
2022/09/20 07:24:43;;;;;;;7.30;1.70;;;20.10;68.80;;;;;;5051014;28;20036;-53
2022/09/20 07:27:12;;;;;;;7.03;1.70;;;20.10;68.90;;;;;;5051295;28;20037;-53
2022/09/20 07:29:40;;;;;;;8.75;1.90;;;20.10;68.90;;;;;;5050707;28;20024;-53
2022/09/20 07:32:08;;;;;;;6.60;2.33;;;20.10;68.90;;;;;;5050991;28;20025;-53
2022/09/20 07:34:37;;;;;;;6.95;1.42;;;20.10;68.90;;;;;;5050380;28;20033;-53
2022/09/20 07:37:04;;;;;;;9.63;1.90;;;20.10;69.20;;;;;;5050726;28;20079;-53
2022/09/20 07:39:33;;;;;;;6.57;1.55;;;20.10;69.90;;;;;;5049861;28;20563;-54
2022/09/20 07:42:05;;;;;;;7.20;1.65;;;20.00;69.30;;;;;;5064232;28;20423;-54
2022/09/20 07:44:33;;;;;;;7.32;1.90;;;20.00;69.40;;;;;;5069359;28;20032;-54
2022/09/20 07:47:01;;;;;;;10.13;1.58;;;20.00;69.40;;;;;;5068750;28;20564;-54
2022/09/20 07:49:32;;;;;;;7.53;1.53;;;20.00;69.50;;;;;;5068740;28;20517;-53
2022/09/20 07:52:00;;;;;;;8.88;1.88;;;19.90;69.40;;;;;;5069318;28;20032;-53
2022/09/20 07:54:29;;;;;;;7.20;1.90;;;19.90;69.50;;;;;;5067917;28;20024;-53
2022/09/20 07:56:57;;;;;;;8.82;2.30;;;20.00;69.60;;;;;;5050191;28;20110;-54
2022/09/20 07:59:25;;;;;;;10.15;2.85;;;19.90;69.60;;;;;;5049550;28;20412;-53
2022/09/20 08:01:54;;;;;;;9.05;2.30;;;19.90;69.70;;;;;;5049894;28;20033;-53
2022/09/20 08:04:21;;;;;;;7.07;2.30;;;19.90;69.80;;;;;;5048590;28;20346;-54
2022/09/20 08:06:50;;;;;;;10.13;2.85;;;19.90;69.90;;;;;;5049840;28;20037;-53
2022/09/20 08:09:18;;;;;;;8.45;2.30;;;19.90;69.70;;;;;;5049466;28;20112;-53
2022/09/20 08:11:47;;;;;;;7.85;1.90;;;19.90;69.70;;;;;;5060932;28;20097;-54
2022/09/20 08:14:17;;;;;;;8.43;2.22;;;19.90;69.70;;;;;;5067411;28;20458;-53
2022/09/20 08:16:49;;;;;;;9.23;2.05;;;19.90;70.40;;;;;;5068496;28;20028;-53
2022/09/20 08:19:20;;;;;;;7.82;1.90;;;19.90;69.70;;;;;;5069928;28;20039;-54
2022/09/20 08:21:52;;;;;;;9.63;2.05;;;19.80;69.80;;;;;;5068902;28;20035;-54
2022/09/20 08:24:20;;;;;;;6.97;1.60;;;19.80;70.10;;;;;;5067905;28;20024;-54
2022/09/20 08:26:48;;;;;;;8.07;1.75;;;19.80;70.30;;;;;;5067411;28;20138;-54
2022/09/20 08:29:16;;;;;;;8.85;2.30;;;19.90;70.50;;;;;;5049169;28;20025;-53
2022/09/20 08:31:46;;;;;;;7.13;1.67;;;19.80;70.60;;;;;;5048575;28;20124;-53
2022/09/20 08:34:16;;;;;;;8.98;1.90;;;19.90;70.80;;;;;;5052717;28;20021;-54
2022/09/20 08:36:48;;;;;;;10.13;1.48;;;19.80;70.80;;;;;;5054194;28;20100;-53
2022/09/20 08:39:17;;;;;;;;;;;19.80;70.90;;;;;;5047900;28;20041;-55
2022/09/20 08:41:55;;;;;;;8.25;1.80;;;19.80;70.70;;;;;;5064097;28;19908;-53
2022/09/20 08:44:33;;;;;;;6.57;1.33;;;19.80;70.80;;;;;;5067316;28;20074;-54
2022/09/20 08:47:19;;;;;;;8.55;1.60;;;19.80;70.80;;;;;;5069400;28;20047;-52
2022/09/20 08:49:51;;;;;;;7.47;1.70;;;19.80;70.80;;;;;;5068012;28;20021;-52
2022/09/20 08:52:22;;;;;;;;;;;19.80;71.00;;;;;;5057899;28;20041;-53
2022/09/20 08:54:51;;;;;;;7.07;1.77;;;19.70;71.20;;;;;;5062366;28;19908;-52
2022/09/20 08:57:20;;;;;;;8.60;1.63;;;19.70;71.20;;;;;;5068274;28;20029;-52
2022/09/20 08:59:49;;;;;;;7.38;1.77;;;19.70;71.20;;;;;;5051750;28;20021;-53
2022/09/20 09:02:20;;;;;;;7.30;2.10;;;19.70;71.30;;;;;;5049186;28;20026;-53
2022/09/20 09:04:52;;;;;;;7.63;1.80;;;19.70;71.50;;;;;;5052132;28;20071;-53
2022/09/20 09:07:20;;;;;;;;;;;19.70;71.60;;;;;;5059531;28;20426;-53
2022/09/20 09:09:51;;;;;;;6.75;1.60;;;19.70;71.80;;;;;;5071468;28;20023;-53
2022/09/20 09:12:33;;;;;;;10.02;1.75;;;19.70;71.90;;;;;;5073484;28;20068;-53
2022/09/20 09:15:21;;;;;;;8.73;2.10;;;19.60;72.20;;;;;;5058684;28;20025;-53
2022/09/20 09:17:50;;;;;;;5.22;1.70;;;19.60;72.40;;;;;;5055326;28;20024;-53
2022/09/20 09:20:21;;;;;;;9.88;2.03;;;19.60;72.50;;;;;;5069089;28;20309;-53
2022/09/20 09:23:04;;;;;;;10.07;2.03;;;19.60;72.90;;;;;;5057399;28;20072;-52
2022/09/20 09:25:42;;;;;;;8.13;2.20;;;19.60;73.40;;;;;;5070257;28;20067;-53
2022/09/20 09:28:10;;;;;;;9.13;1.83;;;19.70;73.90;;;;;;5060202;28;20058;-53
2022/09/20 09:30:41;;;;;;;8.73;2.42;;;19.70;73.40;;;;;;5066393;28;20017;-53
2022/09/20 09:33:26;;;;;;;8.93;1.90;;;19.70;73.20;;;;;;5057586;28;20021;-54
2022/09/20 09:36:08;;;;;;;8.75;1.88;;;19.70;73.10;;;;;;5070966;28;20131;-54
2022/09/20 09:38:40;;;;;;;12.82;1.92;;;19.70;73.00;;;;;;5060968;28;20440;-53
2022/09/20 09:41:32;;;;;;;11.02;2.28;;;19.70;73.40;;;;;;5071625;28;20068;-52
2022/09/20 09:44:09;;;;;;;10.37;1.97;;;19.70;73.40;;;;;;5072105;28;20462;-52
2022/09/20 09:46:39;;;;;;;9.65;2.00;;;19.70;73.40;;;;;;5056992;28;20643;-53
2022/09/20 09:49:09;;;;;;;6.55;1.90;;;19.70;73.40;;;;;;5052501;28;20390;-52
2022/09/20 09:51:37;;;;;;;9.20;1.52;;;19.80;73.40;;;;;;5051482;28;20043;-53
2022/09/20 09:54:08;;;;;;;11.68;2.50;;;19.70;73.30;;;;;;5052016;28;20021;-53
2022/09/20 09:56:56;;;;;;;8.65;2.10;;;19.70;73.30;;;;;;5052741;28;20032;-52
2022/09/20 09:59:50;;;;;;;8.60;1.70;;;19.80;73.20;;;;;;5050644;28;20108;-52
2022/09/20 10:02:42;;;;;;;7.78;1.77;;;19.70;73.30;;;;;;5049697;28;20041;-52
2022/09/20 10:05:35;;;;;;;7.28;1.73;;;19.70;73.20;;;;;;5052461;28;20183;-52
2022/09/20 10:08:32;;;;;;;7.00;2.00;;;19.70;73.20;;;;;;5052438;28;20463;-52
2022/09/20 10:11:17;;;;;;;6.20;1.73;;;19.70;73.30;;;;;;5051017;28;20029;-51
2022/09/20 10:13:52;;;;;;;8.23;1.60;;;19.70;73.40;;;;;;5051812;28;20092;-51
2022/09/20 10:16:55;;;;;;;9.15;2.00;;;19.70;73.40;;;;;;5066325;28;20036;-52
2022/09/20 10:19:40;;;;;;;9.77;1.90;;;19.70;73.50;;;;;;5067120;28;20511;-51
2022/09/20 10:22:32;;;;;;;8.48;1.65;;;19.70;73.70;;;;;;5072645;28;20032;-51
2022/09/20 10:25:09;;;;;;;5.88;1.58;;;19.70;73.60;;;;;;5071500;28;20032;-52
2022/09/20 10:27:55;;;;;;;9.55;1.88;;;19.70;73.70;;;;;;5072074;28;20110;-52
2022/09/20 10:30:33;;;;;;;9.52;1.40;;;19.70;73.80;;;;;;5060356;28;20113;-52
2022/09/20 10:33:34;;;;;;;5.40;1.77;;;19.70;74.00;;;;;;5052001;28;20040;-52
2022/09/20 10:36:29;;;;;;;9.88;1.90;;;19.70;74.10;;;;;;5000501;28;20033;-52
2022/09/20 10:39:24;;;;;;;9.80;1.83;;;19.70;74.30;;;;;;5051079;28;20055;-51
2022/09/20 10:45:37;;;;;;;6.80;1.60;;;19.70;74.50;;;;;;5051347;28;20395;-56
2022/09/20 10:48:08;;;;;;;;;;;19.70;74.50;;;;;;5052471;28;20021;-51
2022/09/20 10:50:47;;;;;;;7.97;1.50;;;19.60;74.40;;;;;;5051829;28;19916;-51
2022/09/20 10:53:42;;;;;;;12.27;2.38;;;19.60;74.60;;;;;;5052138;28;20385;-52
2022/09/20 10:56:27;;;;;;;8.27;1.80;;;19.70;74.60;;;;;;5052271;28;20032;-52
2022/09/20 10:59:01;;;;;;;8.65;1.65;;;19.70;74.60;;;;;;5050891;28;20569;-52
2022/09/20 11:01:51;;;;;;;8.48;1.60;;;19.70;74.50;;;;;;5051644;28;20025;-52
2022/09/20 11:04:40;;;;;;;6.40;1.70;;;19.70;74.40;;;;;;5051339;28;20041;-52
2022/09/20 11:07:19;;;;;;;10.63;1.77;;;19.70;74.40;;;;;;5051742;28;20041;-52
2022/09/20 11:09:58;;;;;;;7.88;1.30;;;19.70;74.50;;;;;;5049614;28;20506;-52
2022/09/20 11:12:37;;;;;;;7.82;1.85;;;19.70;74.40;;;;;;5051312;28;20052;-52
2022/09/20 11:15:39;;;;;;;7.45;1.80;;;19.70;74.50;;;;;;5050678;28;20103;-51
2022/09/20 11:18:11;;;;;;;7.85;1.58;;;19.70;74.60;;;;;;5051412;28;20021;-51
2022/09/20 11:20:48;;;;;;;7.32;1.33;;;19.70;74.50;;;;;;5051600;28;20104;-51
2022/09/20 11:23:30;;;;;;;8.50;1.58;;;19.70;74.80;;;;;;5049779;28;20070;-51
2022/09/20 11:26:12;;;;;;;5.93;1.38;;;19.70;74.80;;;;;;5050750;28;20451;-52
2022/09/20 11:28:46;;;;;;;6.45;1.33;;;19.70;74.90;;;;;;5049694;28;20081;-52
2022/09/20 11:31:24;;;;;;;12.13;1.80;;;19.70;75.00;;;;;;5050894;28;20031;-52
2022/09/20 11:34:11;;;;;;;6.28;1.63;;;19.70;75.10;;;;;;5050671;28;20033;-52
2022/09/20 11:37:01;;;;;;;10.38;1.50;;;19.70;75.80;;;;;;5051034;28;20422;-52
2022/09/20 11:39:46;;;;;;;10.23;2.17;;;19.60;75.00;;;;;;5048690;28;20559;-52
2022/09/20 11:42:29;;;;;;;9.60;2.10;;;19.70;75.20;;;;;;5049423;28;20104;-51
2022/09/20 11:44:58;;;;;;;11.68;1.63;;;19.70;75.30;;;;;;5048529;28;20033;-52
2022/09/20 11:47:29;;;;;;;7.10;1.80;;;19.70;75.40;;;;;;5049205;28;20025;-52
2022/09/20 11:50:22;;;;;;;10.55;2.00;;;19.70;75.30;;;;;;5050459;28;20024;-51
2022/09/20 11:53:21;;;;;;;7.60;1.50;;;19.70;75.50;;;;;;5050464;28;20048;-51
2022/09/20 11:56:09;;;;;;;8.48;1.58;;;19.70;75.80;;;;;;5049879;28;20083;-51
2022/09/20 11:58:49;;;;;;;7.45;1.80;;;19.60;75.80;;;;;;5035901;28;20146;-51
2022/09/20 12:01:25;;;;;;;6.97;1.60;;;19.70;75.80;;;;;;5050253;28;20061;-51
2022/09/20 12:03:57;;;;;;;8.05;1.75;;;19.70;75.80;;;;;;5048672;28;20502;-51
2022/09/20 12:06:35;;;;;;;8.68;1.80;;;19.70;75.80;;;;;;5050215;28;20049;-51
2022/09/20 12:09:31;;;;;;;8.43;1.55;;;19.70;75.80;;;;;;5049606;28;20593;-52
2022/09/20 12:12:13;;;;;;;8.90;1.73;;;19.70;75.70;;;;;;5050295;28;20021;-51
2022/09/20 12:14:41;;;;;;;8.68;1.67;;;19.70;75.80;;;;;;5049852;28;20025;-52
2022/09/20 12:17:46;;;;;;;7.70;1.50;;;19.70;75.80;;;;;;5050547;28;20211;-51
2022/09/20 12:20:50;;;;;;;5.90;1.48;;;19.70;75.60;;;;;;5048238;28;20029;-52
2022/09/20 12:23:42;;;;;;;7.32;1.77;;;19.70;75.60;;;;;;4972008;28;20030;-51
2022/09/20 12:26:19;;;;;;;7.53;2.03;;;19.70;75.70;;;;;;5048318;28;20068;-54
2022/09/20 12:28:49;;;;;;;9.43;1.63;;;19.60;75.80;;;;;;5049273;28;20314;-52
2022/09/20 12:31:30;;;;;;;7.35;1.60;;;19.60;75.90;;;;;;5048117;28;20376;-52
2022/09/20 12:34:00;;;;;;;4.70;1.63;;;19.60;76.00;;;;;;5049586;28;20016;-52
2022/09/20 12:36:31;;;;;;;5.40;1.60;;;19.60;76.00;;;;;;5048488;28;20078;-52
2022/09/20 12:39:05;;;;;;;9.18;1.88;;;19.60;76.10;;;;;;5048216;28;20033;-52
2022/09/20 12:42:02;;;;;;;10.70;2.00;;;19.60;76.10;;;;;;5065040;28;20107;-52
2022/09/20 12:44:49;;;;;;;8.70;1.98;;;19.60;76.10;;;;;;5047929;28;20025;-52
2022/09/20 12:47:35;;;;;;;9.52;1.70;;;19.60;76.10;;;;;;5048060;28;20040;-51
2022/09/20 12:53:15;;;;;;;5.90;1.33;;;19.60;76.10;;;;;;5049968;28;20029;-51
2022/09/20 12:56:02;;;;;;;8.73;1.95;;;19.60;76.30;;;;;;5049171;28;20029;-52
2022/09/20 12:58:52;;;;;;;6.63;1.63;;;19.60;76.40;;;;;;5048807;28;20491;-51
2022/09/20 13:01:23;;;;;;;6.28;1.60;;;19.60;77.40;;;;;;5049695;28;20025;-52
2022/09/20 13:03:53;;;;;;;8.07;1.88;;;19.60;76.90;;;;;;5049316;28;20029;-52
2022/09/20 13:06:23;;;;;;;8.82;2.00;;;19.60;76.80;;;;;;5049581;28;20040;-51
2022/09/20 13:09:00;;;;;;;7.18;1.50;;;19.60;76.90;;;;;;5047722;28;20033;-51
2022/09/20 13:11:31;;;;;;;6.82;1.50;;;19.60;76.90;;;;;;5048710;28;20108;-53
2022/09/20 13:14:05;;;;;;;8.00;1.73;;;19.70;77.80;;;;;;5047760;28;20029;-52
2022/09/20 13:16:37;;;;;;;7.53;1.55;;;19.60;77.10;;;;;;5049503;28;20029;-52
2022/09/20 13:19:28;;;;;;;7.10;1.73;;;19.70;77.10;;;;;;5049173;28;20116;-52
2022/09/20 13:22:01;;;;;;;6.90;1.60;;;19.70;77.30;;;;;;5049693;28;20100;-52
2022/09/20 13:24:38;;;;;;;6.90;1.52;;;19.60;77.10;;;;;;5048872;28;20022;-52
2022/09/20 13:27:13;;;;;;;6.13;1.42;;;19.70;76.90;;;;;;5048009;28;20040;-52
2022/09/20 13:29:44;;;;;;;9.48;1.67;;;19.70;76.90;;;;;;5049279;28;20033;-52
2022/09/20 13:32:22;;;;;;;9.10;1.40;;;19.70;76.80;;;;;;5050348;28;20021;-52
2022/09/20 13:35:15;;;;;;;11.02;2.00;;;19.70;76.60;;;;;;5049181;28;20446;-52
2022/09/20 13:37:57;;;;;;;9.65;1.65;;;19.80;76.60;;;;;;5049267;28;20507;-53
2022/09/20 13:40:48;;;;;;;11.27;2.55;;;19.80;76.90;;;;;;5047177;28;20526;-52
2022/09/20 13:43:37;;;;;;;10.75;1.88;;;19.70;76.80;;;;;;5048620;28;20029;-53
2022/09/20 13:46:16;;;;;;;7.60;1.50;;;19.70;76.80;;;;;;5047772;28;20040;-52
2022/09/20 13:48:53;;;;;;;11.25;1.73;;;19.70;77.00;;;;;;5062505;28;20024;-52
2022/09/20 13:51:26;;;;;;;8.20;1.83;;;19.70;77.00;;;;;;5071351;28;20033;-53
2022/09/20 13:54:30;;;;;;;7.32;1.50;;;19.70;76.90;;;;;;5071938;28;20025;-52
2022/09/20 13:57:04;;;;;;;8.82;1.77;;;19.70;76.90;;;;;;5071465;28;20104;-52
2022/09/20 13:59:44;;;;;;;6.05;1.45;;;19.70;76.90;;;;;;5072009;28;20028;-52
2022/09/20 14:02:31;;;;;;;10.80;2.08;;;19.70;77.00;;;;;;5056992;28;20071;-52
2022/09/20 14:05:03;;;;;;;7.00;1.67;;;19.70;77.00;;;;;;5084587;28;20067;-52
2022/09/20 14:07:35;;;;;;;6.40;1.58;;;19.70;77.10;;;;;;5051191;28;20387;-52
2022/09/20 14:10:04;;;;;;;6.50;1.70;;;19.70;77.20;;;;;;5052064;28;20443;-52
2022/09/20 14:12:32;;;;;;;11.70;1.67;;;19.70;77.20;;;;;;5084267;28;20029;-52
2022/09/20 14:15:07;;;;;;;5.80;1.48;;;19.70;76.80;;;;;;5051465;28;20391;-51
2022/09/20 14:17:36;;;;;;;8.68;1.75;;;19.70;77.00;;;;;;5050967;28;20036;-52